Main page
METAR-TAF:

METAR-TAF

Airports :

RAF Linton-on-Ouse

Linton-on-Ouse, England

latitude: 54-03N, longitude: 001-15W, elevation: 16 m

Current weather observation

The report was made 31 minutes ago, at 01:50 UTC
Wind 4 kt from the South/Southwest
Temperature 10°C
Humidity 82%
Pressure 1029 hPa
Visibility 10 km or more

METAR: EGXU 210150Z AUTO 21004KT 9999 // SCT013/// BKN040/// 10/07 Q1029

Time: 02:21 (02:21 UTC)

Forecast

The report was made 7 hours and 1 minutes ago, at 19:20 UTC
Forecast valid from 20 at 21 UTC to 20 at 24 UTC
Wind 8 kt from the West/Southwest
Visibility 10 km or more
Few clouds at a height of 2000 ft
Probability 30% :
Temporary
from 20 at 21 UTC to 20 at 24 UTC
Broken clouds at a height of 2000 ft

TAF: EGXU 201920Z 2021/2024 25008KT 9999 FEW020 PROB30 TEMPO 2021/2024 BKN020

Weather observations and forecasts of more than 4000 airports (METAR and TAF reports).

The available stations are represented by yellow and red dots on the map.

Hover mouse over dot to see the name of the station.

Then click to see weather observations and forecasts.

To change the map : click on the green buttons with a black cross to zoom in, on the green button with a dash to zoom out, or on the green arrows for adjacent maps.


METAR-TAF: